createdAt,value
2023-01-08T00:01:32.388Z,6.67
2023-01-08T00:04:00.911Z,7.00
2023-01-08T00:06:29.357Z,7.03
2023-01-08T00:08:57.928Z,8.03
2023-01-08T00:11:26.370Z,7.63
2023-01-08T00:13:54.842Z,8.67
2023-01-08T00:16:24.701Z,7.70
2023-01-08T00:18:53.090Z,6.60
2023-01-08T00:21:21.801Z,6.13
2023-01-08T00:23:50.340Z,5.70
2023-01-08T00:26:18.787Z,6.10
2023-01-08T00:28:47.298Z,5.77
2023-01-08T00:31:15.859Z,5.40
2023-01-08T00:33:45.750Z,5.83
2023-01-08T00:36:15.529Z,5.20
2023-01-08T00:38:44.425Z,5.93
2023-01-08T00:41:13.878Z,4.77
2023-01-08T00:43:42.265Z,5.17
2023-01-08T00:46:10.957Z,4.90
2023-01-08T00:48:39.664Z,4.90
2023-01-08T00:51:10.102Z,4.83
2023-01-08T00:53:39.114Z,4.23
2023-01-08T00:56:08.407Z,4.80
2023-01-08T00:58:37.187Z,4.87
2023-01-08T01:01:11.333Z,4.47
2023-01-08T01:03:39.885Z,5.07
2023-01-08T01:06:10.078Z,4.90
2023-01-08T01:08:38.521Z,5.10
2023-01-08T01:11:10.167Z,4.90
2023-01-08T01:13:38.624Z,4.10
2023-01-08T01:16:07.450Z,4.43
2023-01-08T01:18:35.941Z,4.63
2023-01-08T01:21:04.365Z,4.57
2023-01-08T01:23:34.198Z,5.07
2023-01-08T01:26:02.716Z,4.40
2023-01-08T01:28:31.119Z,4.63
2023-01-08T01:30:59.711Z,4.10
2023-01-08T01:33:28.188Z,4.07
2023-01-08T01:36:03.652Z,3.97
2023-01-08T01:38:32.380Z,4.03
2023-01-08T01:41:02.204Z,4.40
2023-01-08T01:43:37.509Z,4.60
2023-01-08T01:46:06.819Z,4.40
2023-01-08T01:48:35.433Z,4.30
2023-01-08T01:51:04.058Z,4.13
2023-01-08T01:53:34.684Z,4.57
2023-01-08T01:56:05.013Z,5.40
2023-01-08T01:58:34.200Z,5.30
2023-01-08T02:01:04.730Z,5.00
2023-01-08T02:03:35.883Z,4.43
2023-01-08T02:06:06.811Z,4.90
2023-01-08T02:08:40.729Z,5.47
2023-01-08T02:11:12.387Z,4.57
2023-01-08T02:13:42.194Z,4.67
2023-01-08T02:16:14.602Z,5.10
2023-01-08T02:18:47.908Z,5.70
2023-01-08T02:21:19.424Z,5.00
2023-01-08T02:23:49.470Z,5.07
2023-01-08T02:26:21.179Z,5.87
2023-01-08T02:28:51.733Z,5.60
2023-01-08T02:31:21.086Z,5.27
2023-01-08T02:33:49.623Z,6.23
2023-01-08T02:36:25.895Z,5.30
2023-01-08T02:39:00.335Z,5.50
2023-01-08T02:41:34.409Z,5.80
2023-01-08T02:44:02.953Z,5.67
2023-01-08T02:46:34.443Z,5.83
2023-01-08T02:49:06.220Z,6.07
2023-01-08T02:51:37.045Z,5.13
2023-01-08T02:54:07.141Z,6.67
2023-01-08T02:56:38.770Z,5.60
2023-01-08T02:59:09.260Z,5.60
2023-01-08T03:01:37.899Z,5.90
2023-01-08T03:04:08.493Z,6.57
2023-01-08T03:06:37.088Z,6.37
2023-01-08T03:09:06.137Z,6.50
2023-01-08T03:11:38.239Z,8.07
2023-01-08T03:14:11.931Z,6.97
2023-01-08T03:16:41.446Z,7.50
2023-01-08T03:19:11.902Z,7.90
2023-01-08T03:21:41.265Z,7.93
2023-01-08T03:24:10.308Z,7.57
2023-01-08T03:26:39.776Z,8.10
2023-01-08T03:29:13.190Z,7.93
2023-01-08T03:31:42.131Z,7.70
2023-01-08T03:34:10.905Z,6.90
2023-01-08T03:36:42.717Z,7.00
2023-01-08T03:39:14.287Z,7.30
2023-01-08T03:41:43.421Z,7.10
2023-01-08T03:44:13.237Z,6.60
2023-01-08T03:46:44.359Z,6.40
2023-01-08T03:49:13.664Z,7.57
2023-01-08T03:51:42.674Z,7.70
2023-01-08T03:54:13.262Z,7.47
2023-01-08T03:56:41.769Z,7.10
2023-01-08T03:59:10.267Z,6.73
2023-01-08T04:01:40.453Z,6.70
2023-01-08T04:04:09.337Z,7.70
2023-01-08T04:06:37.851Z,6.83
2023-01-08T04:09:06.445Z,6.83
2023-01-08T04:11:34.955Z,6.83
2023-01-08T04:14:03.431Z,6.97
2023-01-08T04:16:32.164Z,6.80
2023-01-08T04:19:02.047Z,6.60
2023-01-08T04:21:30.486Z,6.87
2023-01-08T04:23:58.897Z,7.03
2023-01-08T04:26:27.350Z,6.30
2023-01-08T04:28:55.760Z,6.30
2023-01-08T04:31:24.240Z,6.67
2023-01-08T04:33:52.800Z,7.67
2023-01-08T04:36:22.558Z,8.37
2023-01-08T04:38:51.047Z,8.90
2023-01-08T04:41:19.480Z,9.07
2023-01-08T04:43:47.905Z,8.77
2023-01-08T04:46:16.395Z,9.87
2023-01-08T04:48:44.992Z,9.03
2023-01-08T04:51:13.518Z,8.30
2023-01-08T04:53:43.360Z,9.27
2023-01-08T04:56:12.356Z,9.00
2023-01-08T04:58:41.136Z,8.87
2023-01-08T05:01:13.398Z,9.00
2023-01-08T05:03:41.909Z,9.13
2023-01-08T05:06:10.368Z,8.43
2023-01-08T05:08:38.729Z,8.97
2023-01-08T05:11:08.553Z,9.40
2023-01-08T05:13:37.055Z,9.27
2023-01-08T05:16:05.798Z,9.30
2023-01-08T05:18:34.369Z,9.13
2023-01-08T05:21:03.275Z,11.00
2023-01-08T05:23:31.911Z,12.93
2023-01-08T05:26:00.658Z,11.50
2023-01-08T05:28:30.554Z,8.90
2023-01-08T05:30:59.243Z,9.27
2023-01-08T05:33:27.801Z,10.40
2023-01-08T05:35:56.526Z,10.03
2023-01-08T05:38:25.038Z,10.27
2023-01-08T05:40:54.081Z,10.20
2023-01-08T05:43:22.547Z,12.83
2023-01-08T05:45:52.522Z,11.40
2023-01-08T05:48:21.044Z,13.00
2023-01-08T05:50:50.625Z,11.77
2023-01-08T05:53:19.112Z,10.70
2023-01-08T05:55:47.565Z,11.37
2023-01-08T05:58:19.146Z,11.47
2023-01-08T06:00:47.733Z,11.27
2023-01-08T06:03:17.579Z,12.67
2023-01-08T06:05:46.093Z,13.07
2023-01-08T06:08:14.521Z,12.40
2023-01-08T06:10:42.996Z,12.27
2023-01-08T06:13:11.894Z,12.27
2023-01-08T06:15:41.050Z,12.23
2023-01-08T06:18:09.565Z,13.10
2023-01-08T06:20:39.371Z,13.80
2023-01-08T06:23:08.769Z,13.40
2023-01-08T06:25:37.455Z,12.37
2023-01-08T06:28:06.220Z,13.57
2023-01-08T06:30:34.759Z,13.27
2023-01-08T06:33:03.575Z,28.37
2023-01-08T06:35:32.055Z,15.10
2023-01-08T06:38:01.967Z,14.77
2023-01-08T06:40:30.486Z,13.90
2023-01-08T06:43:04.009Z,13.17
2023-01-08T06:45:32.401Z,12.77
2023-01-08T06:48:02.964Z,15.37
2023-01-08T06:50:31.585Z,15.03
2023-01-08T06:53:00.110Z,16.23
2023-01-08T06:55:29.987Z,15.53
2023-01-08T06:57:58.599Z,14.37
2023-01-08T07:00:27.737Z,14.07
2023-01-08T07:02:56.470Z,14.80
2023-01-08T07:05:25.647Z,14.60
2023-01-08T07:07:54.131Z,14.10
2023-01-08T07:10:22.657Z,15.03
2023-01-08T07:12:52.578Z,15.13
2023-01-08T07:15:21.045Z,17.37
2023-01-08T07:17:49.447Z,14.53
2023-01-08T07:20:18.042Z,15.40
2023-01-08T07:22:46.488Z,16.33
2023-01-08T07:25:14.931Z,16.07
2023-01-08T07:27:43.326Z,17.90
2023-01-08T07:30:28.129Z,18.07
2023-01-08T07:33:00.443Z,19.87
2023-01-08T07:35:29.016Z,19.43
2023-01-08T07:37:57.864Z,18.07
2023-01-08T07:40:26.319Z,20.33
2023-01-08T07:43:01.023Z,19.90
2023-01-08T07:45:31.191Z,19.43
2023-01-08T07:47:59.899Z,18.70
2023-01-08T07:50:28.802Z,18.67
2023-01-08T07:52:59.495Z,20.07
2023-01-08T07:55:28.013Z,20.43
2023-01-08T07:57:56.811Z,19.20
2023-01-08T08:00:25.268Z,88.53
2023-01-08T08:02:55.211Z,21.90
2023-01-08T08:05:23.815Z,17.00
2023-01-08T08:07:52.301Z,21.53
2023-01-08T08:10:20.812Z,18.33
2023-01-08T08:12:49.267Z,20.77
2023-01-08T08:15:17.838Z,28.97
2023-01-08T08:17:47.035Z,33.93
2023-01-08T08:20:17.254Z,21.87
2023-01-08T08:22:45.793Z,28.43
2023-01-08T08:25:15.319Z,19.13
2023-01-08T08:27:44.251Z,21.00
2023-01-08T08:30:13.397Z,19.43
2023-01-08T08:32:41.913Z,18.30
2023-01-08T08:35:10.855Z,28.43
2023-01-08T08:37:40.699Z,34.60
2023-01-08T08:40:09.997Z,25.63
2023-01-08T08:42:38.496Z,23.83
2023-01-08T08:45:07.864Z,21.60
2023-01-08T08:47:36.262Z,22.00
2023-01-08T08:50:04.942Z,23.37
2023-01-08T08:52:33.523Z,23.00
2023-01-08T08:55:03.366Z,27.00
2023-01-08T08:57:31.877Z,24.43
2023-01-08T09:00:01.435Z,28.27
2023-01-08T09:02:30.156Z,25.40
2023-01-08T09:04:58.791Z,26.03
2023-01-08T09:07:27.296Z,24.93
2023-01-08T09:09:55.861Z,38.10
2023-01-08T09:12:25.714Z,26.90
2023-01-08T09:14:54.964Z,25.13
2023-01-08T09:17:23.468Z,24.33
2023-01-08T09:19:51.871Z,21.03
2023-01-08T09:22:20.521Z,19.10
2023-01-08T09:24:49.085Z,21.10
2023-01-08T09:27:17.685Z,19.17
2023-01-08T09:29:47.554Z,19.03
2023-01-08T09:32:15.977Z,21.23
2023-01-08T09:34:44.439Z,23.77
2023-01-08T09:37:12.860Z,25.43
2023-01-08T09:39:42.570Z,20.20
2023-01-08T09:42:13.563Z,21.33
2023-01-08T09:44:43.455Z,20.47
2023-01-08T09:47:19.350Z,19.83
2023-01-08T09:49:48.434Z,20.90
2023-01-08T09:52:17.555Z,19.53
2023-01-08T09:54:46.022Z,21.73
2023-01-08T09:57:15.365Z,19.60
2023-01-08T09:59:43.967Z,20.10
2023-01-08T10:02:16.265Z,20.30
2023-01-08T10:04:45.720Z,22.20
2023-01-08T10:07:21.181Z,19.83
2023-01-08T10:09:50.546Z,20.33
2023-01-08T10:12:22.483Z,19.67
2023-01-08T10:14:52.103Z,19.03
2023-01-08T10:17:26.790Z,22.47
2023-01-08T10:19:55.163Z,21.53
2023-01-08T10:22:24.509Z,20.33
2023-01-08T10:24:54.276Z,20.27
2023-01-08T10:27:23.878Z,18.77
2023-01-08T10:29:52.624Z,17.40
2023-01-08T10:32:25.134Z,19.23
2023-01-08T10:34:57.525Z,30.83
2023-01-08T10:37:27.900Z,19.03
2023-01-08T10:39:57.223Z,24.60
2023-01-08T10:42:26.203Z,16.10
2023-01-08T10:45:01.002Z,14.10
2023-01-08T10:47:30.566Z,13.70
2023-01-08T10:50:01.112Z,12.97
2023-01-08T10:52:32.945Z,14.77
2023-01-08T10:55:13.053Z,14.50
2023-01-08T10:57:43.485Z,12.33
2023-01-08T11:00:24.480Z,14.27
2023-01-08T11:02:53.187Z,16.27
2023-01-08T11:05:30.702Z,16.53
2023-01-08T11:08:00.367Z,13.70
2023-01-08T11:10:30.034Z,13.23
2023-01-08T11:12:59.777Z,12.40
2023-01-08T11:15:30.791Z,13.60
2023-01-08T11:18:06.179Z,13.17
2023-01-08T11:20:36.130Z,16.17
2023-01-08T11:23:08.487Z,17.50
2023-01-08T11:25:37.590Z,17.07
2023-01-08T11:28:06.749Z,16.83
2023-01-08T11:30:38.220Z,15.03
2023-01-08T11:33:08.189Z,14.80
2023-01-08T11:35:38.425Z,13.90
2023-01-08T11:38:08.297Z,14.23
2023-01-08T11:40:41.310Z,15.37
2023-01-08T11:43:15.807Z,15.83
2023-01-08T11:45:49.768Z,15.73
2023-01-08T11:48:33.704Z,14.77
2023-01-08T11:51:09.163Z,12.63
2023-01-08T11:53:40.276Z,14.00
2023-01-08T11:56:16.903Z,13.30
2023-01-08T11:58:52.982Z,14.43
2023-01-08T12:01:33.893Z,12.47
2023-01-08T12:04:15.048Z,12.23
2023-01-08T12:06:47.429Z,12.47
2023-01-08T12:09:20.745Z,12.07
2023-01-08T12:11:51.211Z,12.77
2023-01-08T12:14:23.832Z,12.90
2023-01-08T12:16:57.679Z,9.53
2023-01-08T12:19:31.785Z,28.27
2023-01-08T12:22:09.452Z,19.10
2023-01-08T12:24:48.575Z,12.50
2023-01-08T12:27:25.918Z,13.97
2023-01-08T12:30:05.019Z,43.90
2023-01-08T12:32:36.459Z,16.77
2023-01-08T12:35:07.362Z,18.00
2023-01-08T12:37:41.202Z,14.43
2023-01-08T12:40:15.519Z,16.57
2023-01-08T12:42:50.189Z,13.37
2023-01-08T12:45:20.517Z,12.93
2023-01-08T12:47:50.590Z,13.83
2023-01-08T12:50:23.175Z,14.93
2023-01-08T12:52:54.753Z,12.37
2023-01-08T12:55:28.813Z,13.00
2023-01-08T12:58:00.332Z,11.57
2023-01-08T13:00:32.899Z,10.70
2023-01-08T13:03:03.157Z,10.93
2023-01-08T13:05:33.051Z,11.10
2023-01-08T13:08:04.474Z,11.10
2023-01-08T13:10:37.580Z,11.50
2023-01-08T13:13:06.796Z,13.77
2023-01-08T13:15:35.819Z,14.03
2023-01-08T13:18:08.835Z,14.57
2023-01-08T13:20:37.303Z,14.10
2023-01-08T13:23:07.524Z,13.17
2023-01-08T13:25:37.176Z,12.97
2023-01-08T13:28:19.570Z,15.97
2023-01-08T13:30:49.972Z,15.10
2023-01-08T13:33:29.198Z,11.67
2023-01-08T13:36:17.853Z,12.37
2023-01-08T13:38:47.869Z,12.83
2023-01-08T13:41:26.706Z,20.20
2023-01-08T13:43:57.858Z,11.73
2023-01-08T13:46:26.538Z,17.50
2023-01-08T13:48:59.725Z,18.10
2023-01-08T13:51:36.099Z,11.43
2023-01-08T13:54:10.546Z,11.47
2023-01-08T13:56:39.023Z,13.50
2023-01-08T13:59:07.728Z,13.33
2023-01-08T14:01:36.270Z,13.20
2023-01-08T14:04:04.741Z,17.43
2023-01-08T14:06:34.962Z,12.90
2023-01-08T14:09:06.391Z,15.00
2023-01-08T14:11:41.438Z,17.53
2023-01-08T14:14:12.450Z,13.20
2023-01-08T14:16:42.016Z,12.57
2023-01-08T14:19:10.739Z,12.17
2023-01-08T14:21:39.461Z,14.67
2023-01-08T14:24:08.396Z,13.13
2023-01-08T14:26:39.499Z,11.13
2023-01-08T14:29:15.199Z,12.33
2023-01-08T14:31:48.346Z,11.27
2023-01-08T14:34:17.402Z,12.43
2023-01-08T14:36:46.122Z,11.43
2023-01-08T14:39:14.965Z,11.87
2023-01-08T14:42:02.301Z,11.87
2023-01-08T14:44:37.997Z,12.67
2023-01-08T14:47:15.422Z,12.50
2023-01-08T14:49:44.822Z,26.67
2023-01-08T14:52:18.313Z,11.60
2023-01-08T14:54:47.584Z,11.83
2023-01-08T14:57:19.264Z,12.13
2023-01-08T14:59:51.508Z,17.37
2023-01-08T15:02:24.375Z,15.57
2023-01-08T15:05:02.258Z,18.53
2023-01-08T15:07:30.813Z,19.00
2023-01-08T15:10:01.197Z,12.80
2023-01-08T15:12:32.387Z,14.97
2023-01-08T15:15:10.805Z,11.40
2023-01-08T15:17:41.428Z,11.57
2023-01-08T15:20:18.350Z,11.77
2023-01-08T15:22:47.073Z,9.57
2023-01-08T15:25:17.682Z,9.60
2023-01-08T15:27:53.748Z,10.20
2023-01-08T15:30:26.978Z,9.63
2023-01-08T15:32:55.456Z,10.53
2023-01-08T15:35:25.899Z,10.73
2023-01-08T15:37:54.409Z,9.50
2023-01-08T15:40:22.797Z,8.87
2023-01-08T15:43:10.002Z,8.33
2023-01-08T15:45:38.978Z,9.27
2023-01-08T15:48:08.045Z,9.00
2023-01-08T15:50:38.829Z,9.33
2023-01-08T15:53:08.912Z,9.73
2023-01-08T15:55:37.735Z,10.53
2023-01-08T15:58:07.669Z,34.67
2023-01-08T16:00:36.161Z,11.07
2023-01-08T16:03:07.253Z,11.97
2023-01-08T16:05:36.496Z,11.50
2023-01-08T16:08:05.159Z,12.87
2023-01-08T16:10:33.857Z,10.90
2023-01-08T16:13:02.646Z,10.87
2023-01-08T16:15:32.639Z,10.80
2023-01-08T16:18:01.062Z,10.93
2023-01-08T16:20:29.615Z,10.87
2023-01-08T16:22:58.092Z,11.13
2023-01-08T16:25:26.508Z,13.33
2023-01-08T16:27:55.007Z,12.10
2023-01-08T16:30:23.381Z,12.93
2023-01-08T16:32:56.219Z,11.23
2023-01-08T16:35:24.697Z,11.97
2023-01-08T16:37:53.217Z,12.67
2023-01-08T16:40:21.852Z,11.93
2023-01-08T16:42:50.232Z,10.83
2023-01-08T16:45:18.716Z,14.37
2023-01-08T16:47:47.164Z,11.17
2023-01-08T16:50:17.074Z,11.57
2023-01-08T16:52:45.501Z,12.57
2023-01-08T16:55:13.950Z,11.80
2023-01-08T16:57:42.671Z,13.60
2023-01-08T17:00:11.815Z,35.17
2023-01-08T17:02:40.286Z,21.60
2023-01-08T17:05:09.037Z,16.13
2023-01-08T17:07:38.887Z,16.40
2023-01-08T17:10:08.128Z,19.07
2023-01-08T17:12:36.651Z,13.73
2023-01-08T17:15:05.246Z,15.37
2023-01-08T17:17:33.849Z,13.67
2023-01-08T17:20:02.511Z,15.77
2023-01-08T17:22:31.083Z,16.63
2023-01-08T17:25:00.967Z,14.90
2023-01-08T17:27:29.507Z,17.30
2023-01-08T17:29:58.024Z,16.67
2023-01-08T17:32:27.201Z,15.83
2023-01-08T17:34:55.653Z,15.10
2023-01-08T17:37:24.107Z,16.60
2023-01-08T17:39:52.578Z,18.93
2023-01-08T17:42:25.454Z,18.17
2023-01-08T17:44:54.128Z,19.70
2023-01-08T17:47:22.669Z,18.93
2023-01-08T17:49:51.289Z,18.30
2023-01-08T17:52:19.874Z,23.07
2023-01-08T17:54:49.484Z,17.30
2023-01-08T17:57:18.129Z,17.60
2023-01-08T17:59:48.423Z,19.73
2023-01-08T18:02:17.900Z,25.10
2023-01-08T18:04:46.548Z,22.37
2023-01-08T18:07:15.445Z,20.77
2023-01-08T18:09:44.819Z,17.50
2023-01-08T18:12:13.343Z,27.63
2023-01-08T18:14:42.009Z,17.67
2023-01-08T18:17:11.891Z,16.57
2023-01-08T18:19:40.528Z,16.43
2023-01-08T18:22:08.998Z,14.17
2023-01-08T18:24:37.408Z,15.90
2023-01-08T18:27:05.882Z,17.77
2023-01-08T18:29:34.437Z,14.90
2023-01-08T18:32:03.034Z,13.87
2023-01-08T18:34:33.317Z,14.83
2023-01-08T18:37:01.699Z,16.60
2023-01-08T18:39:30.977Z,17.60
2023-01-08T18:42:19.410Z,14.27
2023-01-08T18:44:48.375Z,13.10
2023-01-08T18:47:16.905Z,12.43
2023-01-08T18:49:46.768Z,12.73
2023-01-08T18:52:15.233Z,13.47
2023-01-08T18:54:43.657Z,13.63
2023-01-08T18:57:12.278Z,12.57
2023-01-08T18:59:41.588Z,14.43
2023-01-08T19:02:10.192Z,17.70
2023-01-08T19:04:38.824Z,21.47
2023-01-08T19:07:08.822Z,14.60
2023-01-08T19:09:37.472Z,12.93
2023-01-08T19:12:06.056Z,13.20
2023-01-08T19:14:34.559Z,13.97
2023-01-08T19:17:02.977Z,13.60
2023-01-08T19:19:31.413Z,12.53
2023-01-08T19:21:59.923Z,12.50
2023-01-08T19:24:30.392Z,12.10
2023-01-08T19:26:58.823Z,12.73
2023-01-08T19:29:27.344Z,14.73
2023-01-08T19:31:55.964Z,14.50
2023-01-08T19:34:24.374Z,16.83
2023-01-08T19:36:54.205Z,24.57
2023-01-08T19:39:22.889Z,14.33
2023-01-08T19:42:12.234Z,22.57
2023-01-08T19:44:40.816Z,15.10
2023-01-08T19:47:10.471Z,14.17
2023-01-08T19:49:39.009Z,14.97
2023-01-08T19:52:07.622Z,17.00
2023-01-08T19:54:36.166Z,32.77
2023-01-08T19:57:06.082Z,23.20
2023-01-08T19:59:34.532Z,16.00
2023-01-08T20:02:03.052Z,12.30
2023-01-08T20:04:31.801Z,11.50
2023-01-08T20:07:01.058Z,11.90
2023-01-08T20:09:29.871Z,12.07
2023-01-08T20:11:58.701Z,14.97
2023-01-08T20:14:28.619Z,13.20
2023-01-08T20:16:57.116Z,15.60
2023-01-08T20:19:25.647Z,10.87
2023-01-08T20:21:54.030Z,10.60
2023-01-08T20:24:22.775Z,10.27
2023-01-08T20:26:51.308Z,10.77
2023-01-08T20:29:19.911Z,11.80
2023-01-08T20:31:56.737Z,11.73
2023-01-08T20:34:25.491Z,12.10
2023-01-08T20:36:53.974Z,11.10
2023-01-08T20:39:23.248Z,10.43
2023-01-08T20:41:55.731Z,12.10
2023-01-08T20:44:32.426Z,11.23
2023-01-08T20:47:02.454Z,11.93
2023-01-08T20:49:31.028Z,11.30
2023-01-08T20:52:00.519Z,11.23
2023-01-08T20:54:29.418Z,12.70
2023-01-08T20:56:58.492Z,11.47
2023-01-08T20:59:27.288Z,10.60
2023-01-08T21:01:57.227Z,12.47
2023-01-08T21:04:27.404Z,11.73
2023-01-08T21:06:55.934Z,11.70
2023-01-08T21:09:24.606Z,11.20
2023-01-08T21:11:53.291Z,11.70
2023-01-08T21:14:21.989Z,10.07
2023-01-08T21:16:50.510Z,10.70
2023-01-08T21:19:18.979Z,11.83
2023-01-08T21:21:48.785Z,10.80
2023-01-08T21:24:17.263Z,11.60
2023-01-08T21:26:47.094Z,10.37
2023-01-08T21:29:16.970Z,10.27
2023-01-08T21:31:45.651Z,9.47
2023-01-08T21:34:14.408Z,9.80
2023-01-08T21:36:42.914Z,8.67
2023-01-08T21:39:12.960Z,8.47
2023-01-08T21:41:59.141Z,9.30
2023-01-08T21:44:45.622Z,10.03
2023-01-08T21:47:14.821Z,9.30
2023-01-08T21:49:43.299Z,8.10
2023-01-08T21:52:29.329Z,7.53
2023-01-08T21:54:59.232Z,7.00
2023-01-08T21:57:28.338Z,7.40
2023-01-08T21:59:57.052Z,6.20
2023-01-08T22:02:25.911Z,6.33
2023-01-08T22:04:56.035Z,5.43
2023-01-08T22:07:24.571Z,5.83
2023-01-08T22:09:53.038Z,6.33
2023-01-08T22:12:24.164Z,6.70
2023-01-08T22:14:54.002Z,7.17
2023-01-08T22:17:22.682Z,6.50
2023-01-08T22:19:51.116Z,6.80
2023-01-08T22:22:19.543Z,7.20
2023-01-08T22:24:47.940Z,6.77
2023-01-08T22:27:16.316Z,5.77
2023-01-08T22:29:46.217Z,4.87
2023-01-08T22:32:14.725Z,5.53
2023-01-08T22:34:43.343Z,5.17
2023-01-08T22:37:11.837Z,5.90
2023-01-08T22:39:40.322Z,6.27
2023-01-08T22:42:08.755Z,8.00
2023-01-08T22:44:37.231Z,7.77
2023-01-08T22:47:09.985Z,9.13
2023-01-08T22:49:39.922Z,9.50
2023-01-08T22:52:09.423Z,8.30
2023-01-08T22:54:38.625Z,8.23
2023-01-08T22:57:07.205Z,7.23
2023-01-08T22:59:35.776Z,7.27
2023-01-08T23:02:04.295Z,7.57
2023-01-08T23:04:34.233Z,6.53
2023-01-08T23:07:02.631Z,7.50
2023-01-08T23:09:31.067Z,7.27
2023-01-08T23:11:59.490Z,7.63
2023-01-08T23:14:27.862Z,7.47
2023-01-08T23:16:56.352Z,7.17
2023-01-08T23:19:24.832Z,7.50
2023-01-08T23:21:54.642Z,7.50
2023-01-08T23:24:23.096Z,8.87
2023-01-08T23:26:52.692Z,8.47
2023-01-08T23:29:21.318Z,7.87
2023-01-08T23:31:49.847Z,7.33
2023-01-08T23:34:18.711Z,7.80
2023-01-08T23:36:47.223Z,7.53
2023-01-08T23:39:17.193Z,8.43
2023-01-08T23:41:45.678Z,7.77
2023-01-08T23:44:17.004Z,8.43
2023-01-08T23:46:45.399Z,9.53
2023-01-08T23:49:13.917Z,8.37
2023-01-08T23:51:42.757Z,9.07
2023-01-08T23:54:11.449Z,8.47
2023-01-08T23:56:41.469Z,7.83
2023-01-08T23:59:10.164Z,7.53
